createdAt,value
2017-12-23T00:02:34.663Z,0.63
2017-12-23T00:17:36.266Z,0.74
2017-12-23T00:32:34.676Z,0.82
2017-12-23T01:02:34.765Z,0.96
2017-12-23T01:17:36.479Z,1.00
2017-12-23T01:32:36.411Z,0.79
2017-12-23T01:47:35.262Z,0.67
2017-12-23T02:02:35.080Z,0.60
2017-12-23T02:17:34.706Z,0.63
2017-12-23T02:32:34.540Z,0.78
2017-12-23T02:47:34.438Z,0.84
2017-12-23T03:02:34.374Z,1.02
2017-12-23T03:17:36.862Z,1.16
2017-12-23T03:32:34.774Z,1.28
2017-12-23T03:47:35.732Z,1.45
2017-12-23T04:02:34.416Z,1.60
2017-12-23T04:17:37.064Z,1.77
2017-12-23T04:32:34.949Z,1.96
2017-12-23T04:47:34.810Z,2.13
2017-12-23T05:02:34.573Z,2.28
2017-12-23T05:17:35.982Z,2.33
2017-12-23T05:32:36.494Z,2.40
2017-12-23T05:47:37.011Z,2.50
2017-12-23T06:02:36.318Z,2.58
2017-12-23T06:17:34.410Z,2.68
2017-12-23T06:32:35.321Z,2.86
2017-12-23T06:47:35.177Z,2.86
2017-12-23T07:02:36.366Z,2.89
2017-12-23T07:17:35.154Z,2.93
2017-12-23T07:32:34.520Z,2.97
2017-12-23T07:47:36.451Z,3.04
2017-12-23T08:02:40.325Z,3.06
2017-12-23T08:17:34.788Z,3.08
2017-12-23T08:32:36.704Z,3.14
2017-12-23T08:47:34.566Z,3.55
2017-12-23T09:02:35.139Z,6.01
2017-12-23T09:32:34.415Z,10.44
2017-12-23T09:47:37.903Z,11.64
2017-12-23T10:02:34.795Z,10.52
2017-12-23T10:17:34.922Z,8.97
2017-12-23T10:32:38.054Z,9.08
2017-12-23T10:47:35.030Z,8.84
2017-12-23T11:02:35.022Z,8.12
2017-12-23T11:17:36.336Z,7.35
2017-12-23T11:32:35.323Z,6.73
2017-12-23T12:17:34.546Z,5.12
2017-12-23T12:47:35.483Z,4.99
2017-12-23T13:02:35.393Z,5.00
2017-12-23T13:17:34.768Z,5.01
2017-12-23T13:47:34.720Z,4.78
2017-12-23T14:02:34.635Z,4.63
2017-12-23T14:17:34.999Z,4.34
2017-12-23T14:32:34.913Z,4.04
2017-12-23T14:47:36.422Z,3.74
2017-12-23T15:02:34.265Z,3.52
2017-12-23T15:17:35.202Z,3.42
2017-12-23T15:32:37.130Z,3.35
2017-12-23T15:47:35.074Z,3.27
2017-12-23T16:02:34.973Z,5.30
2017-12-23T16:17:34.891Z,4.14
2017-12-23T16:32:34.342Z,3.48
2017-12-23T16:47:34.294Z,3.16
2017-12-23T17:02:38.308Z,3.07
2017-12-23T17:17:34.703Z,3.01
2017-12-23T17:32:36.542Z,3.00
2017-12-23T17:47:34.494Z,3.02
2017-12-23T18:02:51.286Z,2.99
2017-12-23T18:32:34.864Z,2.95
2017-12-23T18:47:36.726Z,2.91
2017-12-23T19:02:34.777Z,2.85
2017-12-23T19:17:35.076Z,2.78
2017-12-23T19:32:37.118Z,2.74
2017-12-23T19:47:35.108Z,2.70
2017-12-23T20:02:34.962Z,2.60
2017-12-23T20:17:37.866Z,2.60
2017-12-23T20:32:34.329Z,2.65
2017-12-23T20:47:35.613Z,2.61
2017-12-23T21:02:35.046Z,2.57
2017-12-23T21:17:36.628Z,2.59
2017-12-23T21:32:38.552Z,2.77
2017-12-23T21:47:36.479Z,2.96
2017-12-23T22:02:35.878Z,3.11
2017-12-23T22:17:34.821Z,3.17
2017-12-23T22:32:35.234Z,3.18
2017-12-23T22:47:35.233Z,3.22
2017-12-23T23:02:34.545Z,3.28
2017-12-23T23:17:35.051Z,3.30
2017-12-23T23:32:36.894Z,3.37
2017-12-23T23:47:34.828Z,3.45
